Airfield :
LOGIN :

Register | Disclaimer

   EN    FR    IT 

 










Legend :    VFR   Marginal VFR   IFR   Intensive IFR   Very Intensive IFR
Visi :
Ceiling :
>= 8 km
>= 3000ft
5 to 8 km
1000 to 3000 ft
1500m to 5 km
500 to 1000 ft
800 to 1500m
200 to 500 ft
< 800m
< 200 ft
Symbols :   Thunderstorms  Fog  Heavy snow  Heavy precipitations  Wind > 20 kt
SIGMETs :     Misc.  Thunderstorms  Icing  Turbulence  Mountain Waves  Volcanic Ashes







- Airport Elevation : 614 ft
- IATA code : CRL


EBCI - Charleroi

CURRENT METAR :
  • 220950Z 17013KT 3000 -SN BR FEW006 BKN012 M03/M05 Q1006 TEMPO 1200 SN BKN003

EXPIRED METARs :
  • 220920Z 19013KT 9000 BKN013 M03/M06 Q1007 TEMPO 1200 SN BKN003
  • 220850Z 19014KT 9000 SCT014 M03/M06 Q1007 TEMPO 2500 -SN BKN005
  • 220820Z 19015KT 7000 NSC M03/M06 Q1007 TEMPO 2500 -SN BKN005
  • 220750Z 19015KT 6000 NSC M04/M06 Q1008 TEMPO 4000 -SN
  • 220720Z 18014KT 6000 NSC M04/M06 Q1008 TEMPO 4000 -SN
  • 220650Z 18016KT 8000 NSC M04/M07 Q1008 NOSIG

TAF TAF EBCI
Valid from the 22 at 06:00 until the 23 at 12:00 UTC


220520Z 2206/2312 18011KT CAVOK
TEMPO 2210/2215 1200 SN BKN005
PROB40
TEMPO 2210/2215 0500 SN BKN002
BECMG 2213/2215 BKN005
PROB30
TEMPO 2214/2302 BKN016
TEMPO 2302/2312 1200 SHSN BKN005
PROB40
TEMPO 2302/2312 0500 SHSN BKN002
BECMG 2310/2312 VRB03KT
No reported NOTAMs for that airfield.



MET'MAP, your aeronautical weather chart ! - Copyright ORBIFLY December 2007 - Disclaimer

ORBIFLY MET'MAP TEAM :

Programming & Development : Alexandra Zaïnal
Concept & Development : Baudouin d'Aumeries
Co-Development & Prog : Marc-Olivier Méhu
Technical & hardware support : Manuel Goepfert

Contact : metmap@orbifly.com




SOURCES & CREDITS :

   NOAA